Quick Links (Output Below):   Max & Min Temps   /   Climate Reports   /   Zone Forecasts
River Forecasts   /   Forestry Forecasts   /   Aviation Forecasts   /   Radars   /   Features

Terminal Aerodrome Forecast (Texarkana)

Pick a Site:
Arkadelphia | El Dorado | Fayetteville | Fort Smith | Harrison | Highfill | Hot Springs | Jonesboro
Little Rock | Monticello | Mountain Home | Pine Bluff | Texarkana

KTXK 130540Z 1306/1406 34005KT P6SM SCT100
     FM131500 36008KT P6SM SKC
     FM140000 VRB03KT P6SM SKC=

 Latest METARs (Observations) 
How to Decode METARs
08Z KTXK 130753Z AUTO 00000KT 10SM CLR 18/09 A2990 RMK AO2 SLP121
07Z KTXK 130653Z AUTO 34005KT 10SM CLR 20/09 A2989 RMK AO2 SLP114
06Z KTXK 130553Z AUTO 36004KT 10SM CLR 23/09 A2988 RMK AO2 SLP111
         T02280094 10306 20222 403390206 51020
05Z KTXK 130453Z AUTO 34005KT 10SM CLR 24/12 A2987 RMK AO2 SLP109
04Z KTXK 130353Z AUTO 33006KT 10SM CLR 25/15 A2984 RMK AO2 SLP100
03Z KTXK 130253Z AUTO 33007KT 10SM CLR 26/18 A2982 RMK AO2 SLP092
         T02610183 53017
02Z KTXK 130153Z 32004KT 10SM CLR 27/18 A2980 RMK AO2 SLP085
01Z KTXK 130053Z 30003KT 10SM OVC085 29/19 A2978 RMK AO2 SLP081
00Z KTXK 122353Z 31005KT 10SM OVC080 31/19 A2977 RMK AO2 SLP075
         T03060189 10339 20306 53006
***** Today's Observations (Above) *****

23Z KTXK 122253Z 30009KT 10SM SCT060 OVC080 32/19 A2975 RMK AO2 SLP070
***** Yesterday's Observations (Above) *****

Back to Main Page

USA.gov is the U.S. government's official web portal to all federal, state and local government web resources and services.